Latest Weather Observations for Troughton Island

IDD60801

Issued at 11:31 am CST Sunday 2 August 2015 (issued every 30 minutes, with the page automatically refreshed every 10 minutes)

About weather observations | Map of weather stations | Latest weather observations for NT | Other Formats
Station Details ID: 001007 Name: TROUGHTON ISLAND Lat: -13.75 Lon: 126.15 Height: 6.0 m
Data from the previous 72 hours. | See also: Recent months at Troughton Island
Date/Time
CST
Temp
°C
App
Temp
°C
Dew
Point
Rel
Hum
%
Delta-T
°C
Wind Press
QNH
hPa
Press
MSL
hPa
Rain
since 9 am
mm
Dir
 
Spd
km/h
Gust
km/h
Spd
kts
Gust
kts
02/11:02am 26.7 28.6 19.8 66 4.5 WSW 9 11 5 6 1017.1 - 0.0
02/10:32am 26.8 28.3 18.9 62 5.1 SSW 9 11 5 6 1017.1 - 0.0
02/10:30am 26.6 28.4 19.5 65 4.6 SSW 9 - 5 - - 1017.0 0.0
02/10:02am 26.4 27.9 18.8 63 4.9 S 9 11 5 6 1017.1 - 0.0
02/09:32am 26.5 27.9 17.8 58 5.5 SSE 7 11 4 6 1016.7 - 0.0
02/09:02am 25.3 26.8 18.0 64 4.6 SSE 7 7 4 4 1016.4 - 0.0
02/08:32am 24.2 26.9 20.7 81 2.3 S 7 9 4 5 1016.1 - 0.0
02/08:02am 22.8 26.0 21.6 93 0.8 S 7 7 4 4 1015.9 - 0.0
02/07:32am 22.6 25.7 21.4 93 0.8 SSW 7 9 4 5 1015.7 - 0.0
02/07:30am 22.7 25.8 21.5 93 0.8 SSW 7 7 4 4 1015.7 1015.6 -
02/07:02am 23.0 25.9 21.8 93 0.8 SW 9 11 5 6 1015.4 - 0.0
02/06:32am 23.0 25.6 22.0 94 0.7 SW 11 11 6 6 1015.0 - 0.0
02/06:02am 23.2 26.3 22.2 94 0.7 WSW 9 11 5 6 1014.8 - 0.0
02/05:32am 23.3 26.3 21.9 92 0.9 SW 9 11 5 6 1014.8 - 0.0
02/05:02am 23.4 25.9 21.7 90 1.1 SW 11 11 6 6 1014.9 - 0.0
02/04:32am 23.5 25.5 21.6 89 1.3 SW 13 13 7 7 1014.9 - 0.0
02/04:30am 23.4 25.8 21.5 89 1.3 SW 11 - 6 - - 1014.8 0.0
02/04:02am 23.3 25.7 21.6 90 1.1 WSW 11 13 6 7 1015.0 - 0.0
02/03:32am 23.1 25.9 21.5 91 1.1 WSW 9 11 5 6 1015.3 - 0.0
02/03:02am 23.4 26.3 21.8 91 1.1 SW 9 11 5 6 1015.4 - 0.0
02/02:32am 23.7 25.9 21.8 89 1.3 SSW 13 15 7 8 1015.7 - 0.0
02/02:02am 22.9 25.0 21.0 89 1.2 SSW 11 13 6 7 1015.8 - 0.0
02/01:32am 22.9 26.3 21.7 93 0.8 SSW 6 7 3 4 1015.7 - 0.0
02/01:30am 22.9 26.3 21.7 93 0.8 SSW 6 6 3 3 1015.8 1015.7 -
02/01:02am 23.0 26.5 22.2 95 0.5 SSW 7 7 4 4 1015.9 - 0.0
02/12:32am 22.9 26.2 21.9 94 0.7 S 7 7 4 4 1015.8 - 0.0
02/12:02am 23.0 26.4 22.0 94 0.7 S 7 7 4 4 1015.9 - 0.0
 
Date/Time
CST
Temp
°C
App
Temp
°C
Dew
Point
Rel
Hum
%
Delta-T
°C
Wind Press
QNH
hPa
Press
MSL
hPa
Rain
since 9 am
mm
Dir
 
Spd
km/h
Gust
km/h
Spd
kts
Gust
kts
01/11:32pm 22.7 25.7 21.2 91 1.0 S 7 7 4 4 1016.0 - 0.0
01/11:02pm 23.1 26.5 21.7 92 0.9 S 6 7 3 4 1015.9 - 0.0
01/10:32pm 23.4 26.9 21.8 91 1.1 SSW 6 7 3 4 1015.7 - 0.0
01/10:30pm 23.3 26.5 21.6 90 1.1 SSW 7 - 4 - - 1015.6 0.0
01/10:02pm 23.1 26.2 21.4 90 1.1 WSW 7 7 4 4 1015.6 - 0.0
01/09:32pm 23.6 27.1 22.2 92 0.9 W 7 7 4 4 1015.5 - 0.0
01/09:02pm 23.7 27.1 22.0 90 1.1 W 7 7 4 4 1015.2 - 0.0
01/08:32pm 24.0 27.1 21.1 84 1.9 WNW 6 6 3 3 1014.9 - 0.0
01/08:02pm 24.2 28.4 20.9 82 2.2 CALM 0 0 0 0 1014.5 - 0.0
01/07:32pm 24.2 27.2 21.3 84 1.9 SW 7 11 4 6 1014.0 - 0.0
01/07:30pm 24.2 27.2 21.3 84 1.9 WSW 7 9 4 5 1014.0 1013.9 -
01/07:02pm 24.7 26.9 21.2 81 2.3 WSW 11 15 6 8 1013.6 - 0.0
01/06:32pm 25.8 27.2 21.0 75 3.2 WSW 15 17 8 9 1013.3 - 0.0
01/06:02pm 26.5 27.2 19.6 66 4.5 WSW 15 17 8 9 1013.3 - 0.0
01/05:02pm 27.2 27.5 19.5 62 5.0 WSW 17 19 9 10 1013.3 - 0.0
01/04:32pm 27.4 28.3 20.0 64 4.8 W 15 19 8 10 1013.4 - 0.0
01/04:30pm 27.5 28.3 19.8 63 5.0 W 15 - 8 - - 1013.3 0.0
01/04:02pm 27.8 28.6 19.8 61 5.2 W 15 17 8 9 1013.6 - 0.0
01/03:32pm 27.8 28.5 19.6 61 5.3 W 15 17 8 9 1014.1 - 0.0
01/03:02pm 27.8 28.9 20.4 64 4.9 W 15 17 8 9 1014.5 - 0.0
01/02:32pm 27.4 28.6 20.0 64 4.8 W 13 15 7 8 1014.8 - 0.0
01/02:02pm 28.1 29.6 20.6 63 4.9 W 13 15 7 8 1015.4 - 0.0
01/01:32pm 27.3 28.8 20.6 67 4.4 WSW 13 15 7 8 1015.8 - 0.0
01/01:30pm 27.0 28.4 20.3 66 4.4 WSW 13 - 7 - - 1015.7 -
01/01:02pm 27.2 28.7 20.5 67 4.4 WSW 13 15 7 8 1016.2 - 0.0
01/12:32pm 27.1 28.9 21.2 70 3.9 WSW 13 15 7 8 1016.6 - 0.0
01/12:02pm 27.0 29.4 21.5 72 3.7 WSW 11 13 6 7 1017.0 - 0.0
01/11:32am 26.8 28.5 20.2 67 4.3 SW 11 13 6 7 1017.2 - 0.0
01/11:02am 26.3 28.2 21.3 74 3.3 SW 13 13 7 7 1017.4 - 0.0
01/10:32am 26.4 28.0 20.7 71 3.7 SSW 13 15 7 8 1017.5 - 0.0
01/10:30am 26.1 27.4 20.2 70 3.8 SSW 13 - 7 - - 1017.4 0.0
01/10:02am 25.7 27.7 20.0 71 3.7 SSW 9 11 5 6 1017.5 - 0.0
01/09:32am 25.1 27.1 20.8 77 2.8 S 11 13 6 7 1017.1 - 0.0
01/09:02am 24.6 26.7 20.9 80 2.4 S 11 13 6 7 1016.8 - 0.0
01/08:32am 23.7 25.9 21.2 86 1.6 S 11 15 6 8 1016.4 - 0.0
01/08:02am 22.8 25.1 21.3 91 1.0 S 11 13 6 7 1016.1 - 0.0
01/07:32am 22.8 24.4 21.4 92 0.9 S 15 17 8 9 1015.7 - 0.0
01/07:30am 22.7 24.6 21.3 92 0.9 S 13 - 7 - - 1015.6 -
01/07:02am 22.7 24.2 21.3 92 0.9 S 15 17 8 9 1015.5 - 0.0
01/06:32am 22.9 24.5 21.4 91 1.0 S 15 17 8 9 1015.3 - 0.0
01/06:02am 22.9 24.5 21.5 92 0.9 SSW 15 17 8 9 1015.0 - 0.0
01/05:32am 22.8 24.6 21.1 90 1.1 SSW 13 17 7 9 1014.9 - 0.0
01/05:02am 22.9 24.8 21.4 91 1.0 S 13 15 7 8 1014.8 - 0.0
01/04:32am 22.8 24.7 21.3 91 1.0 S 13 15 7 8 1014.8 - 0.0
01/04:30am 22.7 24.5 21.2 91 1.0 S 13 - 7 - - 1014.8 0.0
01/04:02am 22.8 25.0 21.8 94 0.7 S 13 15 7 8 1014.9 - 0.0
01/03:32am 22.9 25.6 22.1 95 0.5 SSW 11 13 6 7 1014.9 - 0.0
01/03:02am 22.8 25.6 22.3 97 0.3 WSW 11 17 6 9 1014.9 - 0.0
01/02:32am 22.5 26.0 21.8 96 0.5 N 6 7 3 4 1015.0 - 0.0
01/02:02am 22.5 27.0 21.5 94 0.7 CALM 0 0 0 0 1015.0 - 0.0
01/01:32am 22.7 27.3 21.7 94 0.7 CALM 0 0 0 0 1015.2 - 0.0
01/01:30am 22.6 27.1 21.6 94 0.7 CALM 0 - 0 - - 1015.1 -
01/01:02am 22.7 27.2 21.5 93 0.8 CALM 0 0 0 0 1015.3 - 0.0
01/12:32am 23.6 26.9 21.5 88 1.4 N 6 7 3 4 1015.3 - 0.0
01/12:02am 23.9 27.1 22.3 91 1.1 N 9 11 5 6 1015.3 - 0.0
 
Date/Time
CST
Temp
°C
App
Temp
°C
Dew
Point
Rel
Hum
%
Delta-T
°C
Wind Press
QNH
hPa
Press
MSL
hPa
Rain
since 9 am
mm
Dir
 
Spd
km/h
Gust
km/h
Spd
kts
Gust
kts
31/11:32pm 23.5 26.5 21.9 91 1.1 NNE 9 11 5 6 1015.5 - 0.0
31/11:02pm 23.7 26.3 22.0 90 1.1 NE 11 13 6 7 1015.4 - 0.0
31/10:32pm 24.0 26.3 22.1 89 1.3 NE 13 17 7 9 1015.4 - 0.0
31/10:30pm 23.9 26.1 21.8 88 1.4 NE 13 - 7 - - 1015.3 0.0
31/10:02pm 24.3 25.3 22.2 88 1.4 NE 20 28 11 15 1015.3 - 0.0
31/09:32pm 24.2 24.3 21.9 87 1.5 ENE 24 28 13 15 1015.1 - 0.0
31/09:02pm 24.3 24.7 21.8 86 1.7 ENE 22 24 12 13 1015.1 - 0.0
31/08:32pm 24.4 25.4 21.7 85 1.8 NE 19 24 10 13 1014.8 - 0.0
31/08:02pm 24.4 24.7 21.5 84 1.9 ENE 22 26 12 14 1014.3 - 0.0
31/07:32pm 24.5 24.4 21.4 83 2.0 ENE 24 30 13 16 1013.9 - 0.0
31/07:02pm 24.6 24.2 20.9 80 2.4 NE 24 28 13 15 1013.6 - 0.0
31/06:32pm 25.1 24.5 20.6 76 2.9 NE 24 30 13 16 1013.4 - 0.0
31/06:02pm 25.7 26.0 20.7 74 3.3 NE 20 26 11 14 1013.2 - 0.0
31/05:32pm 26.2 26.3 20.3 70 3.9 NE 20 28 11 15 1013.0 - 0.0
31/05:02pm 26.5 25.8 19.6 66 4.5 NE 22 30 12 16 1013.0 - 0.0
31/04:32pm 27.2 27.3 20.3 66 4.5 ENE 20 24 11 13 1013.2 - 0.0
31/04:30pm 27.2 27.3 20.3 66 4.5 ENE 20 - 11 - - 1013.1 0.0
31/04:02pm 27.3 26.8 19.9 64 4.8 ENE 22 28 12 15 1013.3 - 0.0
31/03:32pm 27.6 27.1 19.1 59 5.5 ENE 20 26 11 14 1013.6 - 0.0
31/03:02pm 27.7 27.2 19.0 59 5.6 E 20 24 11 13 1013.9 - 0.0
31/02:32pm 28.5 28.0 18.6 55 6.4 E 19 22 10 12 1014.4 - 0.0
31/02:02pm 28.1 26.8 18.2 55 6.3 E 22 26 12 14 1014.9 - 0.0
31/01:32pm 29.6 28.7 16.8 46 8.0 E 17 24 9 13 1015.4 - 0.0
31/01:30pm 29.2 28.4 17.1 48 7.6 E 17 - 9 - - 1015.3 -
31/01:02pm 29.6 28.0 16.1 44 8.4 E 19 24 10 13 1015.7 - 0.0
31/12:32pm 29.5 28.7 18.0 50 7.3 E 19 24 10 13 1016.1 - 0.0
31/12:02pm 28.5 25.9 15.8 46 7.8 ESE 24 30 13 16 1016.3 - 0.0
31/11:32am 28.0 25.2 16.3 49 7.2 E 26 32 14 17 1016.6 - 0.0
31/11:02am 28.5 25.8 14.7 43 8.4 ESE 22 33 12 18 1016.6 - 0.0
31/10:32am 28.0 25.4 15.0 45 7.9 SE 22 28 12 15 1016.7 - 0.0
31/10:30am 28.1 25.6 15.1 45 7.9 SE 22 - 12 - - 1016.6 0.0
31/10:02am 27.1 24.4 15.5 49 7.1 SE 24 30 13 16 1016.8 - 0.0
31/09:32am 26.5 23.3 14.3 47 7.3 SE 24 28 13 15 1016.6 - 0.0
31/09:02am 25.9 23.6 15.6 53 6.3 SE 22 26 12 14 1016.4 - 0.0
31/08:32am 25.0 23.4 16.4 59 5.3 SE 20 24 11 13 1016.1 - 0.0
31/08:02am 23.8 23.0 17.1 66 4.1 SE 17 20 9 11 1015.7 - 0.0
31/07:32am 22.6 22.4 17.5 73 3.2 SE 15 19 8 10 1015.5 - 0.0
31/07:30am 22.6 22.0 17.5 73 3.2 SSE 17 - 9 - - 1015.4 -
31/07:02am 22.1 21.9 17.5 75 2.8 SSE 15 17 8 9 1015.3 - 0.0
31/06:32am 22.1 21.6 17.7 76 2.7 SSE 17 19 9 10 1015.2 - 0.0
31/06:02am 22.4 22.0 18.0 76 2.7 SE 17 19 9 10 1015.1 - 0.0
31/05:32am 22.4 22.5 18.4 78 2.5 SE 15 17 8 9 1015.1 - 0.0
31/05:02am 22.1 22.6 18.3 79 2.4 SSE 13 15 7 8 1015.2 - 0.0
31/04:32am 22.5 22.8 18.7 79 2.4 SSE 15 17 8 9 1015.2 - 0.0
31/04:30am 22.5 22.7 18.5 78 2.5 SSE 15 - 8 - - 1015.1 0.0
31/04:02am 22.5 22.6 18.3 77 2.6 SE 15 17 8 9 1015.3 - 0.0
31/03:32am 22.2 22.4 18.6 80 2.3 SSE 15 17 8 9 1015.4 - 0.0
31/03:02am 22.2 22.8 18.6 80 2.3 SSE 13 15 7 8 1015.7 - 0.0
31/02:32am 22.5 23.4 19.3 82 2.0 SSE 13 17 7 9 1016.0 - 0.0
31/02:02am 23.3 24.6 19.2 78 2.6 ESE 11 15 6 8 1016.1 - 0.0
31/01:32am 23.8 24.9 19.7 78 2.6 ESE 13 17 7 9 1016.4 - 0.0
31/01:30am 24.0 24.8 19.9 78 2.6 ESE 15 - 8 - - 1016.3 -
31/01:02am 23.9 23.9 19.8 78 2.6 E 19 20 10 11 1016.6 - 0.0
31/12:32am 24.1 25.6 21.2 84 1.9 E 15 19 8 10 1016.6 - 0.0
31/12:02am 24.3 26.0 21.6 85 1.8 ESE 15 17 8 9 1016.7 - 0.0
 
Date/Time
CST
Temp
°C
App
Temp
°C
Dew
Point
Rel
Hum
%
Delta-T
°C
Wind Press
QNH
hPa
Press
MSL
hPa
Rain
since 9 am
mm
Dir
 
Spd
km/h
Gust
km/h
Spd
kts
Gust
kts
30/11:32pm 24.3 25.9 21.4 84 1.9 E 15 17 8 9 1016.7 - 0.0
30/11:02pm 24.7 25.8 21.2 81 2.3 ENE 17 19 9 10 1016.7 - 0.0
30/10:32pm 24.8 25.2 20.9 79 2.6 ENE 20 24 11 13 1016.5 - 0.0
30/10:30pm 24.9 25.3 21.0 79 2.6 ENE 20 - 11 - - 1016.4 0.0
30/10:02pm 25.2 25.1 20.7 76 2.9 ENE 22 26 12 14 1016.4 - 0.0
30/09:32pm 25.5 24.1 19.6 70 3.8 ENE 26 32 14 17 1016.2 - 0.0
30/09:02pm 25.5 23.5 19.2 68 4.0 NE 28 35 15 19 1016.0 - 0.0
30/08:32pm 25.6 22.8 19.0 67 4.2 ENE 32 39 17 21 1015.6 - 0.0
30/08:02pm 25.5 22.6 19.2 68 4.0 ENE 33 39 18 21 1015.1 - 0.0
30/07:02pm 25.5 23.2 19.4 69 3.9 NE 30 37 16 20 1014.8 - 0.0
30/06:32pm 25.7 23.4 19.3 67 4.1 NE 30 37 16 20 1014.7 - 0.0
30/06:02pm 26.0 23.7 19.4 67 4.3 NE 30 35 16 19 1014.7 - 0.0
30/05:32pm 26.5 24.6 19.4 65 4.6 NE 28 35 15 19 1014.5 - 0.0
30/05:02pm 27.0 25.4 19.1 62 5.1 NE 26 33 14 18 1014.5 - 0.0
30/04:32pm 27.2 25.3 18.5 59 5.6 NE 26 33 14 18 1014.5 - 0.0
30/04:02pm 27.8 25.0 18.2 56 6.1 NE 30 37 16 20 1014.6 - 0.0
30/03:32pm 28.4 26.1 18.5 55 6.3 ENE 28 35 15 19 1015.0 - 0.0
30/03:02pm 28.4 26.5 18.5 55 6.3 ENE 26 32 14 17 1015.4 - 0.0
30/02:32pm 28.9 27.2 18.1 52 6.9 ENE 24 30 13 16 1016.0 - 0.0
30/02:02pm 28.7 27.8 18.2 53 6.7 E 20 28 11 15 1016.4 - 0.0
30/01:32pm 29.7 29.1 18.5 51 7.2 E 19 22 10 12 1016.8 - 0.0
30/01:30pm 29.2 28.7 18.6 52 6.8 E 19 - 10 - - 1016.7 -
30/01:02pm 29.3 28.4 17.8 50 7.3 ESE 19 24 10 13 1017.3 - 0.0

Other Formats:

Comma delimited format used in spreadsheet applications
http://www.bom.gov.au/fwo/IDD60801/IDD60801.94102.axf

JavaScript Object Notation format (JSON) in row-major order
http://www.bom.gov.au/fwo/IDD60801/IDD60801.94102.json